createdAt,value
2022-12-04T00:00:55.489Z,10.41
2022-12-04T00:06:38.675Z,10.41
2022-12-04T00:12:21.793Z,10.38
2022-12-04T00:18:04.779Z,10.38
2022-12-04T00:23:48.330Z,10.35
2022-12-04T00:29:32.309Z,10.35
2022-12-04T00:35:15.361Z,10.35
2022-12-04T00:40:58.715Z,10.36
2022-12-04T00:46:41.649Z,10.34
2022-12-04T00:52:24.585Z,10.33
2022-12-04T00:58:07.869Z,10.34
2022-12-04T01:03:51.020Z,10.34
2022-12-04T01:09:34.102Z,10.36
2022-12-04T01:15:18.556Z,10.31
2022-12-04T01:21:01.660Z,10.28
2022-12-04T01:26:44.665Z,10.26
2022-12-04T01:32:28.148Z,10.24
2022-12-04T01:38:11.024Z,10.27
2022-12-04T01:44:05.120Z,10.25
2022-12-04T01:49:48.539Z,10.27
2022-12-04T01:55:31.569Z,10.25
2022-12-04T02:01:15.738Z,10.25
2022-12-04T02:06:58.858Z,10.24
2022-12-04T02:12:45.530Z,10.22
2022-12-04T02:18:32.254Z,10.21
2022-12-04T02:24:29.340Z,10.27
2022-12-04T02:30:13.362Z,10.26
2022-12-04T02:36:00.906Z,10.26
2022-12-04T02:41:47.485Z,10.23
2022-12-04T02:47:31.668Z,10.23
2022-12-04T02:53:17.608Z,10.19
2022-12-04T02:59:02.184Z,10.19
2022-12-04T03:04:45.802Z,10.24
2022-12-04T03:10:32.295Z,10.25
2022-12-04T03:16:17.621Z,10.22
2022-12-04T03:22:04.150Z,10.2
2022-12-04T03:27:51.598Z,10.18
2022-12-04T03:33:38.931Z,10.17
2022-12-04T03:39:24.799Z,10.17
2022-12-04T03:45:10.417Z,10.14
2022-12-04T03:50:57.405Z,10.13
2022-12-04T03:56:41.817Z,10.12
2022-12-04T04:02:28.281Z,10.12
2022-12-04T04:08:15.084Z,10.15
2022-12-04T04:14:02.608Z,10.18
2022-12-04T04:19:47.677Z,10.17
2022-12-04T04:25:31.213Z,10.13
2022-12-04T04:31:19.619Z,10.11
2022-12-04T04:37:06.277Z,10.14
2022-12-04T04:42:52.031Z,10.13
2022-12-04T04:48:39.165Z,10.11
2022-12-04T04:54:23.007Z,10.09
2022-12-04T05:00:08.019Z,10.09
2022-12-04T05:05:50.969Z,10.11
2022-12-04T05:11:34.111Z,10.09
2022-12-04T05:17:17.221Z,10.08
2022-12-04T05:23:00.328Z,10.06
2022-12-04T05:28:43.153Z,10.05
2022-12-04T05:34:26.039Z,10.04
2022-12-04T05:40:11.243Z,10.05
2022-12-04T05:45:54.503Z,10.09
2022-12-04T05:51:37.418Z,10.07
2022-12-04T05:57:22.311Z,10.06
2022-12-04T06:03:11.392Z,10.07
2022-12-04T06:08:55.377Z,10.11
2022-12-04T06:14:39.865Z,10.1
2022-12-04T06:20:23.242Z,10.09
2022-12-04T06:26:07.763Z,10.09
2022-12-04T06:31:50.898Z,10.07
2022-12-04T06:37:34.231Z,10.07
2022-12-04T06:43:18.189Z,10.09
2022-12-04T06:49:01.843Z,10.09
2022-12-04T06:54:44.701Z,10.08
2022-12-04T07:00:27.684Z,10.09
2022-12-04T07:06:18.130Z,10.1
2022-12-04T07:12:01.305Z,10.12
2022-12-04T07:17:44.330Z,10.1
2022-12-04T07:23:27.403Z,10.11
2022-12-04T07:29:10.756Z,10.11
2022-12-04T07:34:53.742Z,10.14
2022-12-04T07:40:36.886Z,10.15
2022-12-04T07:46:20.798Z,10.12
2022-12-04T07:52:04.984Z,10.14
2022-12-04T07:57:47.853Z,10.16
2022-12-04T08:03:30.865Z,10.15
2022-12-04T08:09:13.721Z,10.19
2022-12-04T08:14:56.510Z,10.2
2022-12-04T08:20:39.799Z,10.2
2022-12-04T08:26:23.714Z,10.22
2022-12-04T08:32:06.933Z,10.25
2022-12-04T08:37:50.218Z,10.29
2022-12-04T08:43:33.505Z,10.3
2022-12-04T08:49:16.431Z,10.33
2022-12-04T08:54:59.359Z,10.35
2022-12-04T09:00:42.701Z,10.35
2022-12-04T09:06:25.870Z,10.42
2022-12-04T09:12:08.873Z,10.44
2022-12-04T09:17:51.850Z,10.45
2022-12-04T09:23:35.648Z,10.46
2022-12-04T09:29:18.851Z,10.49
2022-12-04T09:35:01.978Z,10.51
2022-12-04T09:40:53.456Z,10.53
2022-12-04T09:46:42.615Z,10.62
2022-12-04T09:52:36.939Z,10.66
2022-12-04T09:58:21.697Z,10.7
2022-12-04T10:04:06.498Z,10.71
2022-12-04T10:09:53.712Z,10.76
2022-12-04T10:15:42.195Z,10.77
2022-12-04T10:21:32.643Z,10.79
2022-12-04T10:27:19.447Z,10.84
2022-12-04T10:33:08.496Z,10.89
2022-12-04T10:38:53.641Z,10.93
2022-12-04T10:44:36.850Z,10.93
2022-12-04T10:50:21.292Z,10.94
2022-12-04T10:56:15.193Z,10.96
2022-12-04T11:02:06.871Z,10.97
2022-12-04T11:07:51.444Z,11.03
2022-12-04T11:13:38.185Z,11.03
2022-12-04T11:19:25.858Z,11.03
2022-12-04T11:25:15.311Z,11.04
2022-12-04T11:30:59.835Z,11.06
2022-12-04T11:36:49.068Z,11.1
2022-12-04T11:42:32.498Z,11.08
2022-12-04T11:48:18.973Z,11.09
2022-12-04T11:54:03.820Z,11.1
2022-12-04T11:59:53.377Z,11.1
2022-12-04T12:05:51.888Z,11.18
2022-12-04T12:11:37.330Z,11.17
2022-12-04T12:17:23.185Z,11.18
2022-12-04T12:23:12.077Z,11.21
2022-12-04T12:29:05.449Z,11.24
2022-12-04T12:34:49.383Z,11.27
2022-12-04T12:40:34.879Z,11.27
2022-12-04T12:46:21.422Z,11.31
2022-12-04T12:52:07.229Z,11.31
2022-12-04T12:57:55.399Z,11.3
2022-12-04T13:03:43.130Z,11.28
2022-12-04T13:09:28.417Z,11.28
2022-12-04T13:15:16.714Z,11.26
2022-12-04T13:21:01.515Z,11.26
2022-12-04T13:26:49.628Z,11.27
2022-12-04T13:32:44.151Z,11.26
2022-12-04T13:38:30.892Z,11.24
2022-12-04T13:44:19.944Z,11.22
2022-12-04T13:50:15.103Z,11.17
2022-12-04T13:56:00.852Z,11.16
2022-12-04T14:01:57.439Z,11.17
2022-12-04T14:07:54.654Z,11.14
2022-12-04T14:13:42.426Z,11.11
2022-12-04T14:19:30.752Z,11.07
2022-12-04T14:25:31.766Z,11.02
2022-12-04T14:31:20.811Z,11
2022-12-04T14:37:05.137Z,10.98
2022-12-04T14:42:49.075Z,10.93
2022-12-04T14:48:38.720Z,10.86
2022-12-04T14:54:24.908Z,10.82
2022-12-04T15:00:14.432Z,10.78
2022-12-04T15:06:06.359Z,10.78
2022-12-04T15:11:50.736Z,10.74
2022-12-04T15:17:33.819Z,10.68
2022-12-04T15:23:18.677Z,10.63
2022-12-04T15:29:03.052Z,10.6
2022-12-04T15:34:47.707Z,10.55
2022-12-04T15:40:31.041Z,10.53
2022-12-04T15:46:25.324Z,10.48
2022-12-04T15:52:14.166Z,10.47
2022-12-04T15:57:59.142Z,10.47
2022-12-04T16:03:45.032Z,10.43
2022-12-04T16:09:28.510Z,10.41
2022-12-04T16:15:11.924Z,10.39
2022-12-04T16:20:56.031Z,10.36
2022-12-04T16:26:39.215Z,10.33
2022-12-04T16:32:24.455Z,10.29
2022-12-04T16:38:08.713Z,10.3
2022-12-04T16:43:54.221Z,10.27
2022-12-04T16:49:37.039Z,10.24
2022-12-04T16:55:24.352Z,10.19
2022-12-04T17:01:12.221Z,10.18
2022-12-04T17:06:55.532Z,10.19
2022-12-04T17:12:38.464Z,10.16
2022-12-04T17:18:21.736Z,10.12
2022-12-04T17:24:05.696Z,10.1
2022-12-04T17:29:48.801Z,10.08
2022-12-04T17:35:31.888Z,10.09
2022-12-04T17:41:15.165Z,10.08
2022-12-04T17:46:58.256Z,10.06
2022-12-04T17:52:41.581Z,10.03
2022-12-04T17:58:24.578Z,10.01
2022-12-04T18:04:07.737Z,10.02
2022-12-04T18:09:50.667Z,10.01
2022-12-04T18:15:34.090Z,9.99
2022-12-04T18:21:17.317Z,9.98
2022-12-04T18:27:00.565Z,9.95
2022-12-04T18:32:43.544Z,9.95
2022-12-04T18:38:27.550Z,9.95
2022-12-04T18:44:10.907Z,9.93
2022-12-04T18:49:54.356Z,9.91
2022-12-04T18:55:38.892Z,9.91
2022-12-04T19:01:22.148Z,9.88
2022-12-04T19:07:05.806Z,9.9
2022-12-04T19:12:49.040Z,9.9
2022-12-04T19:18:32.047Z,9.91
2022-12-04T19:24:15.162Z,9.89
2022-12-04T19:29:58.566Z,9.9
2022-12-04T19:35:41.910Z,9.88
2022-12-04T19:41:25.920Z,9.87
2022-12-04T19:47:08.918Z,9.86
2022-12-04T19:52:52.204Z,9.84
2022-12-04T19:58:35.354Z,9.84
2022-12-04T20:04:18.451Z,9.84
2022-12-04T20:10:01.742Z,9.81
2022-12-04T20:15:44.976Z,9.79
2022-12-04T20:21:28.242Z,9.81
2022-12-04T20:27:12.394Z,9.81
2022-12-04T20:32:55.326Z,9.83
2022-12-04T20:38:39.490Z,9.87
2022-12-04T20:44:22.559Z,9.86
2022-12-04T20:50:06.620Z,9.85
2022-12-04T20:55:56.295Z,9.85
2022-12-04T21:01:39.766Z,9.89
2022-12-04T21:07:23.304Z,9.86
2022-12-04T21:13:06.229Z,9.84
2022-12-04T21:18:49.362Z,9.82
2022-12-04T21:24:32.515Z,9.84
2022-12-04T21:30:15.858Z,9.83
2022-12-04T21:35:59.828Z,9.83
2022-12-04T21:41:42.914Z,9.83
2022-12-04T21:47:26.989Z,9.82
2022-12-04T21:53:10.089Z,9.81
2022-12-04T21:58:53.472Z,9.81
2022-12-04T22:04:36.224Z,9.79
2022-12-04T22:10:20.539Z,9.82
2022-12-04T22:16:06.471Z,9.79
2022-12-04T22:21:49.800Z,9.78
2022-12-04T22:27:33.999Z,9.77
2022-12-04T22:33:18.933Z,9.77
2022-12-04T22:39:10.353Z,9.79
2022-12-04T22:44:53.066Z,9.79
2022-12-04T22:50:36.146Z,9.77
2022-12-04T22:56:20.233Z,9.77
2022-12-04T23:02:03.365Z,9.77
2022-12-04T23:07:46.729Z,9.77
2022-12-04T23:13:31.141Z,9.76
2022-12-04T23:19:16.133Z,9.74
2022-12-04T23:24:59.348Z,9.75
2022-12-04T23:30:43.917Z,9.73
2022-12-04T23:36:27.243Z,9.76
2022-12-04T23:42:10.248Z,9.77
2022-12-04T23:47:53.092Z,9.74
2022-12-04T23:53:36.127Z,9.72
2022-12-04T23:59:19.261Z,9.73
